Apple Creek, Ohio
Current Conditions -  °F | °C
As of 3:56 PM on Wednesday 17 Dec 2014 (Local Time) from KBJJ Reporting Station
Overcast Overcast  
Wind Chill: -7°   Ceiling: 1900
Heat Index: -1°   Visibility: 10mi
Dew Point: -4°   Wind: 14mph
Humidity: 79%   Direction: 280°W
Pressure: 30.1"   Gusts: NA
Location:  40.75°N, 81.84°W
Report Text: KBJJ 172056Z AUTO 28012KT 10SM OVC019 M01/M04 A3010 RMK AO2 SLP204 T10111044 53003 TSNO
Loading
Personal Weather Stations






























Interactive Weather Map New forecast layout! Learn more

10-Day Weather Forecast

Advertisements
Track Severe Weather on mobile